Time;durP1;ratioP1;P1;durP2;ratioP2;P2;SDS_P1;SDS_P2;PMS_P1;PMS_P2;Temp;Humidity;BMP_temperature;BMP_pressure;BME280_temperature;BME280_humidity;BME280_pressure;Samples;Min_cycle;Max_cycle;Signal;HPM_P1;HPM_P2
2022/03/20 00:01:11;;;;;;;8.10;2.45;;;;;;;;;;5027301;28;20073;-70
2022/03/20 00:03:37;;;;;;;7.55;3.10;;;;;;;;;;5035747;28;20253;-69
2022/03/20 00:06:04;;;;;;;5.80;2.60;;;;;;;;;;5021287;28;20304;-69
2022/03/20 00:08:30;;;;;;;4.30;2.40;;;;;;;;;;5020275;28;20156;-68
2022/03/20 00:11:01;;;;;;;7.18;3.20;;;;;;;;;;5022461;28;20380;-68
2022/03/20 00:13:27;;;;;;;9.18;3.17;;;;;;;;;;5034516;28;20521;-69
2022/03/20 00:15:55;;;;;;;8.45;4.35;;;;;;;;;;5038596;28;20052;-69
2022/03/20 00:18:23;;;;;;;9.40;3.70;;;;;;;;;;5030883;28;20112;-69
2022/03/20 00:20:50;;;;;;;7.80;3.63;;;;;;;;;;5039805;28;20057;-69
2022/03/20 00:23:17;;;;;;;8.02;3.70;;;;;;;;;;5021731;28;20411;-69
2022/03/20 00:25:44;;;;;;;11.60;4.00;;;;;;;;;;5043775;28;20050;-70
2022/03/20 00:28:12;;;;;;;6.93;3.67;;;;;;;;;;5021815;28;20067;-69
2022/03/20 00:30:38;;;;;;;6.25;3.53;;;;;;;;;;5053565;28;20474;-70
2022/03/20 00:33:05;;;;;;;10.35;3.83;;;;;;;;;;5039113;28;20048;-69
2022/03/20 00:35:31;;;;;;;6.68;4.05;;;;;;;;;;5024232;28;20053;-69
2022/03/20 00:38:03;;;;;;;9.00;4.05;;;;;;;;;;5035680;28;20065;-69
2022/03/20 00:40:29;;;;;;;8.75;4.20;;;;;;;;;;5020144;28;20547;-69
2022/03/20 00:42:55;;;;;;;11.05;4.68;;;;;;;;;;5035948;28;20057;-69
2022/03/20 00:45:21;;;;;;;8.93;4.60;;;;;;;;;;5033304;28;20071;-69
2022/03/20 00:47:48;;;;;;;11.98;4.80;;;;;;;;;;5037496;28;20049;-69
2022/03/20 00:50:14;;;;;;;9.38;5.28;;;;;;;;;;5022508;28;20299;-69
2022/03/20 00:52:41;;;;;;;9.23;5.15;;;;;;;;;;5032227;28;20702;-69
2022/03/20 00:55:07;;;;;;;8.80;5.10;;;;;;;;;;5041032;28;20136;-69
2022/03/20 00:57:34;;;;;;;9.80;5.60;;;;;;;;;;5027158;28;20045;-69
2022/03/20 01:00:00;;;;;;;10.77;5.97;;;;;;;;;;5037695;28;20171;-69
2022/03/20 01:02:26;;;;;;;10.48;6.25;;;;;;;;;;5043024;28;20040;-68
2022/03/20 01:04:53;;;;;;;13.68;7.10;;;;;;;;;;5032224;28;20053;-69
2022/03/20 01:07:19;;;;;;;15.02;7.60;;;;;;;;;;5036878;28;20282;-69
2022/03/20 01:09:45;;;;;;;12.70;7.18;;;;;;;;;;5040886;28;20056;-69
2022/03/20 01:12:12;;;;;;;13.65;7.88;;;;;;;;;;5051389;28;20048;-69
2022/03/20 01:14:38;;;;;;;13.65;8.38;;;;;;;;;;5026082;28;20078;-69
2022/03/20 01:17:05;;;;;;;15.93;8.00;;;;;;;;;;5030623;28;20055;-70
2022/03/20 01:19:32;;;;;;;12.80;8.07;;;;;;;;;;5031408;28;20052;-69
2022/03/20 01:21:59;;;;;;;11.45;7.15;;;;;;;;;;5040241;28;20063;-69
2022/03/20 01:24:27;;;;;;;12.75;7.38;;;;;;;;;;5036958;28;20100;-69
2022/03/20 01:26:54;;;;;;;13.45;8.30;;;;;;;;;;5034072;28;20071;-69
2022/03/20 01:29:21;;;;;;;19.95;9.43;;;;;;;;;;5042375;28;20056;-68
2022/03/20 01:31:49;;;;;;;12.60;6.95;;;;;;;;;;5026302;28;20053;-69
2022/03/20 01:34:15;;;;;;;15.45;9.02;;;;;;;;;;5031963;28;20057;-69
2022/03/20 01:36:42;;;;;;;16.23;9.57;;;;;;;;;;5035833;28;20055;-69
2022/03/20 01:39:08;;;;;;;14.88;8.65;;;;;;;;;;5026664;28;20041;-69
2022/03/20 01:41:34;;;;;;;12.70;8.10;;;;;;;;;;5037195;28;20052;-69
2022/03/20 01:44:02;;;;;;;12.98;7.90;;;;;;;;;;5024613;28;20429;-69
2022/03/20 01:46:30;;;;;;;15.35;8.25;;;;;;;;;;5029582;28;20416;-69
2022/03/20 01:48:56;;;;;;;18.08;8.43;;;;;;;;;;5030572;28;20049;-69
2022/03/20 01:52:10;;;;;;;14.23;7.68;;;;;;;;;;5040338;28;20395;-69
2022/03/20 01:54:10;;;;;;;14.00;7.97;;;;;;;;;;5049834;28;20655;-70
2022/03/20 01:56:41;;;;;;;12.90;6.75;;;;;;;;;;5018663;28;20143;-69
2022/03/20 01:59:08;;;;;;;13.77;7.07;;;;;;;;;;5032103;28;20055;-69
2022/03/20 02:01:34;;;;;;;15.18;7.80;;;;;;;;;;5025511;28;20057;-70
2022/03/20 02:04:00;;;;;;;12.40;7.07;;;;;;;;;;5038515;28;20482;-70
2022/03/20 02:06:27;;;;;;;8.85;5.20;;;;;;;;;;5026628;28;20421;-70
2022/03/20 02:08:56;;;;;;;11.85;5.68;;;;;;;;;;5040117;28;20045;-70
2022/03/20 02:11:26;;;;;;;13.50;6.00;;;;;;;;;;5033429;28;20062;-69
2022/03/20 02:13:53;;;;;;;9.48;5.35;;;;;;;;;;5014100;28;20487;-69
2022/03/20 02:16:19;;;;;;;12.95;5.63;;;;;;;;;;5036064;28;20045;-71
2022/03/20 02:18:47;;;;;;;10.55;5.63;;;;;;;;;;5023786;28;20041;-70
2022/03/20 02:21:17;;;;;;;10.25;4.93;;;;;;;;;;5039002;28;20475;-70
2022/03/20 02:23:43;;;;;;;9.18;5.00;;;;;;;;;;5024390;28;20049;-70
2022/03/20 02:26:10;;;;;;;8.57;5.28;;;;;;;;;;5030709;28;20415;-69
2022/03/20 02:28:36;;;;;;;10.63;5.20;;;;;;;;;;5050009;28;20048;-69
2022/03/20 02:31:03;;;;;;;11.32;4.85;;;;;;;;;;5028429;28;20040;-70
2022/03/20 02:33:30;;;;;;;9.32;5.32;;;;;;;;;;5037555;28;20059;-69
2022/03/20 02:35:56;;;;;;;9.82;5.40;;;;;;;;;;5027699;28;20056;-69
2022/03/20 02:38:22;;;;;;;10.00;5.32;;;;;;;;;;5033797;28;20111;-70
2022/03/20 02:40:50;;;;;;;9.07;5.20;;;;;;;;;;5025404;28;20049;-69
2022/03/20 02:43:17;;;;;;;8.68;4.57;;;;;;;;;;5036862;28;20520;-69
2022/03/20 02:45:43;;;;;;;11.45;4.95;;;;;;;;;;5035491;28;20055;-69
2022/03/20 02:48:10;;;;;;;9.63;5.38;;;;;;;;;;5027405;28;20137;-70
2022/03/20 02:50:37;;;;;;;9.20;4.60;;;;;;;;;;5042675;28;20422;-70
2022/03/20 02:53:13;;;;;;;7.90;5.13;;;;;;;;;;5032158;28;20077;-69
2022/03/20 02:55:47;;;;;;;11.20;5.45;;;;;;;;;;5034299;28;20534;-69
2022/03/20 02:58:14;;;;;;;10.90;5.40;;;;;;;;;;5024558;28;20049;-70
2022/03/20 03:00:42;;;;;;;10.18;4.57;;;;;;;;;;5036962;28;20445;-69
2022/03/20 03:03:10;;;;;;;12.77;5.60;;;;;;;;;;5045506;28;20091;-69
2022/03/20 03:05:38;;;;;;;11.25;6.15;;;;;;;;;;5025267;28;20882;-69
2022/03/20 03:10:57;;;;;;;10.52;5.95;;;;;;;;;;5025738;28;20419;-69
2022/03/20 03:13:35;;;;;;;14.00;5.65;;;;;;;;;;5040728;28;20063;-69
2022/03/20 03:16:02;;;;;;;13.18;6.35;;;;;;;;;;5031609;28;20384;-69
2022/03/20 03:18:29;;;;;;;12.77;6.28;;;;;;;;;;5043178;28;20057;-68
2022/03/20 03:20:55;;;;;;;13.75;7.00;;;;;;;;;;5035321;28;20879;-69
2022/03/20 03:23:24;;;;;;;11.32;6.80;;;;;;;;;;5042059;28;20166;-68
2022/03/20 03:25:51;;;;;;;10.90;6.40;;;;;;;;;;5045936;28;20071;-68
2022/03/20 03:28:17;;;;;;;14.50;7.05;;;;;;;;;;5032593;28;20040;-68
2022/03/20 03:30:45;;;;;;;10.93;6.35;;;;;;;;;;5048868;28;20048;-69
2022/03/20 03:33:12;;;;;;;13.57;6.88;;;;;;;;;;5035696;28;20049;-69
2022/03/20 03:35:51;;;;;;;12.27;7.35;;;;;;;;;;5026531;28;20053;-69
2022/03/20 03:38:19;;;;;;;16.17;7.60;;;;;;;;;;5024593;28;20486;-70
2022/03/20 03:40:46;;;;;;;14.60;7.43;;;;;;;;;;5039056;28;20049;-68
2022/03/20 03:43:14;;;;;;;19.25;6.93;;;;;;;;;;5034035;28;20045;-69
2022/03/20 03:45:41;;;;;;;12.38;7.03;;;;;;;;;;5030738;28;20057;-69
2022/03/20 03:48:08;;;;;;;13.07;7.22;;;;;;;;;;5025015;28;20102;-69
2022/03/20 03:50:36;;;;;;;13.80;7.47;;;;;;;;;;5028962;28;20059;-69
2022/03/20 03:53:03;;;;;;;12.90;7.50;;;;;;;;;;5036807;28;20394;-69
2022/03/20 03:55:30;;;;;;;13.70;7.65;;;;;;;;;;5029598;28;20052;-69
2022/03/20 03:57:57;;;;;;;13.55;7.70;;;;;;;;;;5024410;28;20053;-69
2022/03/20 04:00:26;;;;;;;16.92;8.27;;;;;;;;;;5043268;28;20049;-69
2022/03/20 04:02:52;;;;;;;15.27;8.68;;;;;;;;;;5022096;28;20068;-70
2022/03/20 04:05:19;;;;;;;14.68;7.80;;;;;;;;;;5034416;28;20049;-69
2022/03/20 04:07:47;;;;;;;14.95;8.48;;;;;;;;;;5031293;28;20426;-69
2022/03/20 04:10:15;;;;;;;14.32;8.00;;;;;;;;;;5038663;28;20070;-69
2022/03/20 04:12:43;;;;;;;16.38;8.30;;;;;;;;;;5036420;28;20049;-69
2022/03/20 04:15:13;;;;;;;14.55;8.43;;;;;;;;;;5022038;28;20049;-69
2022/03/20 04:17:40;;;;;;;14.65;8.93;;;;;;;;;;5033759;28;20529;-69
2022/03/20 04:20:07;;;;;;;15.80;8.50;;;;;;;;;;5041087;28;20049;-69
2022/03/20 04:22:35;;;;;;;16.05;8.90;;;;;;;;;;5037199;28;20042;-69
2022/03/20 04:25:02;;;;;;;16.05;9.25;;;;;;;;;;5028787;28;20061;-69
2022/03/20 04:27:29;;;;;;;14.68;9.10;;;;;;;;;;5040995;28;20052;-69
2022/03/20 04:29:55;;;;;;;17.95;9.15;;;;;;;;;;5042047;28;20067;-69
2022/03/20 04:32:22;;;;;;;16.17;8.95;;;;;;;;;;5028885;28;20055;-69
2022/03/20 04:34:48;;;;;;;17.65;9.48;;;;;;;;;;5051399;28;20368;-69
2022/03/20 04:37:16;;;;;;;18.00;9.63;;;;;;;;;;5032447;28;20056;-69
2022/03/20 04:39:43;;;;;;;15.27;9.52;;;;;;;;;;5048690;28;20053;-69
2022/03/20 04:42:10;;;;;;;16.90;8.30;;;;;;;;;;5035979;28;20565;-69
2022/03/20 04:44:39;;;;;;;15.75;9.02;;;;;;;;;;5035228;28;20056;-69
2022/03/20 04:58:29;;;;;;;15.43;8.95;;;;;;;;;;5021101;28;20244;-69
2022/03/20 05:00:55;;;;;;;20.00;10.75;;;;;;;;;;5027231;28;20055;-69
2022/03/20 05:03:21;;;;;;;16.67;11.05;;;;;;;;;;5032132;28;20076;-69
2022/03/20 05:05:48;;;;;;;20.73;10.63;;;;;;;;;;5042695;28;20049;-69
2022/03/20 05:08:15;;;;;;;16.55;10.02;;;;;;;;;;5034210;28;20596;-69
2022/03/20 05:13:27;;;;;;;19.27;10.95;;;;;;;;;;5032989;28;20056;-69
2022/03/20 05:15:55;;;;;;;18.67;11.02;;;;;;;;;;5047217;28;20041;-69
2022/03/20 05:18:22;;;;;;;19.67;11.20;;;;;;;;;;5028477;28;20053;-69
2022/03/20 05:20:49;;;;;;;16.48;10.00;;;;;;;;;;5042585;28;20558;-69
2022/03/20 05:23:15;;;;;;;18.20;11.10;;;;;;;;;;5033974;28;20056;-69
2022/03/20 05:25:42;;;;;;;18.45;11.07;;;;;;;;;;5039675;28;20285;-69
2022/03/20 05:28:08;;;;;;;21.77;11.30;;;;;;;;;;5039042;28;20052;-69
2022/03/20 05:30:35;;;;;;;17.27;10.80;;;;;;;;;;5024308;28;20048;-70
2022/03/20 05:33:01;;;;;;;16.73;10.25;;;;;;;;;;5050442;28;20053;-69
2022/03/20 05:35:28;;;;;;;18.88;11.85;;;;;;;;;;5034068;28;20045;-69
2022/03/20 05:37:55;;;;;;;19.52;11.15;;;;;;;;;;5040886;28;20045;-69
2022/03/20 05:40:21;;;;;;;19.55;10.90;;;;;;;;;;5031752;28;20050;-69
2022/03/20 05:42:47;;;;;;;16.58;10.30;;;;;;;;;;5043551;28;20726;-69
2022/03/20 05:45:14;;;;;;;18.30;11.02;;;;;;;;;;5036422;28;20409;-69
2022/03/20 05:47:40;;;;;;;20.00;11.13;;;;;;;;;;5026510;28;20080;-70
2022/03/20 05:50:08;;;;;;;17.55;10.90;;;;;;;;;;5032994;28;20424;-69
2022/03/20 05:52:35;;;;;;;19.83;10.55;;;;;;;;;;5031871;28;20064;-70
2022/03/20 05:55:02;;;;;;;18.65;11.07;;;;;;;;;;5031826;28;20057;-70
2022/03/20 06:00:20;;;;;;;20.83;11.93;;;;;;;;;;5025619;28;20049;-70
2022/03/20 06:02:47;;;;;;;19.27;11.10;;;;;;;;;;5038763;28;20053;-70
2022/03/20 06:05:14;;;;;;;20.83;11.25;;;;;;;;;;5030628;28;20112;-70
2022/03/20 06:07:41;;;;;;;28.23;11.63;;;;;;;;;;5042416;28;20076;-70
2022/03/20 06:10:08;;;;;;;19.27;11.45;;;;;;;;;;5040368;28;20494;-70
2022/03/20 06:12:35;;;;;;;21.63;11.43;;;;;;;;;;5038498;28;20429;-70
2022/03/20 06:15:01;;;;;;;18.95;10.52;;;;;;;;;;5030754;28;20049;-70
2022/03/20 06:17:28;;;;;;;16.10;10.38;;;;;;;;;;5033802;28;20032;-70
2022/03/20 06:19:54;;;;;;;19.90;11.20;;;;;;;;;;5041227;28;20053;-70
2022/03/20 06:22:20;;;;;;;20.35;11.10;;;;;;;;;;5030970;28;20045;-70
2022/03/20 06:24:47;;;;;;;18.52;10.93;;;;;;;;;;5027698;28;20670;-70
2022/03/20 06:27:13;;;;;;;21.60;12.05;;;;;;;;;;5036385;28;20494;-70
2022/03/20 06:29:40;;;;;;;19.75;11.75;;;;;;;;;;5035834;28;20045;-71
2022/03/20 06:32:07;;;;;;;19.20;11.60;;;;;;;;;;5025032;28;20053;-70
2022/03/20 06:34:34;;;;;;;20.88;11.25;;;;;;;;;;5031491;28;20569;-70
2022/03/20 06:37:00;;;;;;;18.67;12.43;;;;;;;;;;5032306;28;20361;-70
2022/03/20 06:39:26;;;;;;;18.63;11.35;;;;;;;;;;5015300;28;20049;-70
2022/03/20 06:41:52;;;;;;;19.65;11.48;;;;;;;;;;5033253;28;20078;-70
2022/03/20 06:44:19;;;;;;;23.60;12.38;;;;;;;;;;5033627;28;20541;-70
2022/03/20 06:46:45;;;;;;;17.33;11.02;;;;;;;;;;5041189;28;20064;-70
2022/03/20 06:49:12;;;;;;;18.27;11.52;;;;;;;;;;5032940;28;20464;-70
2022/03/20 06:51:38;;;;;;;19.08;11.65;;;;;;;;;;5031326;28;20062;-70
2022/03/20 06:54:07;;;;;;;20.10;10.80;;;;;;;;;;5045309;28;20060;-70
2022/03/20 06:56:33;;;;;;;;;;;;;;;;;;5036339;28;20044;-70
2022/03/20 06:58:59;;;;;;;19.48;11.82;;;;;;;;;;5038203;28;19932;-70
2022/03/20 07:01:26;;;;;;;22.45;12.02;;;;;;;;;;5027577;28;20163;-70
2022/03/20 07:03:53;;;;;;;21.35;12.38;;;;;;;;;;5030931;28;20045;-70
2022/03/20 07:06:20;;;;;;;19.05;11.27;;;;;;;;;;5026429;28;20458;-70
2022/03/20 07:08:46;;;;;;;18.65;11.88;;;;;;;;;;5035776;28;20044;-70
2022/03/20 07:11:13;;;;;;;16.48;10.32;;;;;;;;;;5056789;28;20491;-70
2022/03/20 07:13:48;;;;;;;17.52;11.00;;;;;;;;;;5033237;28;20506;-70
2022/03/20 07:16:15;;;;;;;19.30;11.68;;;;;;;;;;5035385;28;20049;-70
2022/03/20 07:18:42;;;;;;;17.98;11.07;;;;;;;;;;5036846;28;20044;-70
2022/03/20 07:21:11;;;;;;;23.63;13.10;;;;;;;;;;5034462;28;20526;-69
2022/03/20 07:23:37;;;;;;;19.48;12.10;;;;;;;;;;5039470;28;20271;-70
2022/03/20 07:31:34;;;;;;;20.15;13.15;;;;;;;;;;5029077;28;20051;-70
2022/03/20 07:34:00;;;;;;;21.08;12.85;;;;;;;;;;5046368;28;20444;-70
2022/03/20 07:36:28;;;;;;;24.80;12.50;;;;;;;;;;5027951;28;20053;-70
2022/03/20 07:38:55;;;;;;;22.87;13.57;;;;;;;;;;5039248;28;20440;-70
2022/03/20 07:41:21;;;;;;;20.33;12.10;;;;;;;;;;5032784;28;20053;-70
2022/03/20 07:43:48;;;;;;;24.50;13.40;;;;;;;;;;5035300;28;20466;-70
2022/03/20 07:46:14;;;;;;;22.80;13.40;;;;;;;;;;5031825;28;20049;-70
2022/03/20 07:48:41;;;;;;;20.40;12.52;;;;;;;;;;5033768;28;20057;-70
2022/03/20 07:51:07;;;;;;;22.48;13.30;;;;;;;;;;5046606;28;20044;-70
2022/03/20 07:53:33;;;;;;;21.90;12.23;;;;;;;;;;5041071;28;20052;-70
2022/03/20 07:56:00;;;;;;;20.33;13.18;;;;;;;;;;5040314;28;20327;-70
2022/03/20 07:58:26;;;;;;;23.20;13.00;;;;;;;;;;5029536;28;20060;-70
2022/03/20 08:00:52;;;;;;;22.40;13.20;;;;;;;;;;5031792;28;20053;-70
2022/03/20 08:03:19;;;;;;;20.73;13.38;;;;;;;;;;5041285;28;20049;-70
2022/03/20 08:05:45;;;;;;;22.42;12.35;;;;;;;;;;5033958;28;20099;-70
2022/03/20 08:08:15;;;;;;;23.13;13.43;;;;;;;;;;5044622;28;20048;-70
2022/03/20 08:10:42;;;;;;;22.92;13.52;;;;;;;;;;5026530;28;20057;-70
2022/03/20 08:13:10;;;;;;;23.38;13.68;;;;;;;;;;5035890;28;20311;-70
2022/03/20 08:15:36;;;;;;;21.02;13.52;;;;;;;;;;5039526;28;20103;-70
2022/03/20 08:18:04;;;;;;;22.00;12.88;;;;;;;;;;5031289;28;20049;-71
2022/03/20 08:20:33;;;;;;;21.45;12.75;;;;;;;;;;5038721;28;20048;-70
2022/03/20 08:23:00;;;;;;;21.35;13.05;;;;;;;;;;5035637;28;20064;-70
2022/03/20 08:25:26;;;;;;;21.15;12.68;;;;;;;;;;5032586;28;20139;-70
2022/03/20 08:27:55;;;;;;;22.75;14.02;;;;;;;;;;5030470;28;20052;-70
2022/03/20 08:30:22;;;;;;;22.38;13.05;;;;;;;;;;5043837;28;20052;-70
2022/03/20 08:32:52;;;;;;;21.70;13.68;;;;;;;;;;5044414;28;20095;-70
2022/03/20 08:35:19;;;;;;;22.38;13.80;;;;;;;;;;5030897;28;20426;-70
2022/03/20 08:37:46;;;;;;;20.35;13.32;;;;;;;;;;5041864;28;20072;-70
2022/03/20 08:40:15;;;;;;;24.60;14.48;;;;;;;;;;5029682;28;20521;-70
2022/03/20 08:42:43;;;;;;;23.17;12.60;;;;;;;;;;5035261;28;20038;-70
2022/03/20 08:45:11;;;;;;;23.15;13.73;;;;;;;;;;5032014;28;20516;-70
2022/03/20 08:47:43;;;;;;;22.38;13.82;;;;;;;;;;5038210;28;20065;-70
2022/03/20 08:50:10;;;;;;;24.10;14.40;;;;;;;;;;5030210;28;20060;-70
2022/03/20 08:52:36;;;;;;;26.38;15.23;;;;;;;;;;5021784;28;20389;-70
2022/03/20 08:55:09;;;;;;;27.20;14.45;;;;;;;;;;5039078;28;20052;-70
2022/03/20 08:57:39;;;;;;;22.35;13.85;;;;;;;;;;5031883;28;20305;-70
2022/03/20 09:00:07;;;;;;;22.95;14.07;;;;;;;;;;5015228;28;20526;-70
2022/03/20 09:02:33;;;;;;;27.08;13.70;;;;;;;;;;5032512;28;20060;-70
2022/03/20 09:05:00;;;;;;;24.08;14.10;;;;;;;;;;5037457;28;20052;-70
2022/03/20 09:07:26;;;;;;;26.27;15.38;;;;;;;;;;5043274;28;20548;-70
2022/03/20 09:09:52;;;;;;;23.40;14.60;;;;;;;;;;5028216;28;20060;-70
2022/03/20 09:12:18;;;;;;;25.00;14.55;;;;;;;;;;5049141;28;20306;-71
2022/03/20 09:14:45;;;;;;;25.88;14.75;;;;;;;;;;5042844;28;20691;-70
2022/03/20 09:19:57;;;;;;;25.27;15.05;;;;;;;;;;5052435;28;20768;-70
2022/03/20 09:22:26;;;;;;;25.55;15.00;;;;;;;;;;5036341;28;20433;-70
2022/03/20 09:24:52;;;;;;;29.17;15.32;;;;;;;;;;5039288;28;20041;-70
2022/03/20 09:27:19;;;;;;;23.17;14.13;;;;;;;;;;5029713;28;20050;-70
2022/03/20 09:29:46;;;;;;;24.95;14.90;;;;;;;;;;5036785;28;20041;-70
2022/03/20 09:32:13;;;;;;;28.80;15.85;;;;;;;;;;5032459;28;20045;-70
2022/03/20 09:34:39;;;;;;;26.67;16.23;;;;;;;;;;5035630;28;20041;-71
2022/03/20 09:37:05;;;;;;;25.90;15.48;;;;;;;;;;5031132;28;20366;-70
2022/03/20 09:39:32;;;;;;;29.38;15.88;;;;;;;;;;5037860;28;20037;-70
2022/03/20 09:41:59;;;;;;;26.23;14.90;;;;;;;;;;5043440;28;20051;-70
2022/03/20 09:44:26;;;;;;;27.10;15.27;;;;;;;;;;5036116;28;20614;-70
2022/03/20 09:46:52;;;;;;;25.67;15.80;;;;;;;;;;5036262;28;20419;-70
2022/03/20 09:49:24;;;;;;;24.27;16.08;;;;;;;;;;5038369;28;20053;-70
2022/03/20 09:51:50;;;;;;;24.55;14.93;;;;;;;;;;5037463;28;20053;-70
2022/03/20 09:54:16;;;;;;;26.85;16.13;;;;;;;;;;5035526;28;20060;-70
2022/03/20 09:56:43;;;;;;;24.52;14.57;;;;;;;;;;5029981;28;20041;-70
2022/03/20 09:59:09;;;;;;;25.08;15.57;;;;;;;;;;5038894;28;20055;-70
2022/03/20 10:01:36;;;;;;;26.30;16.42;;;;;;;;;;5035900;28;20049;-70
2022/03/20 10:04:07;;;;;;;23.65;15.77;;;;;;;;;;5034783;28;20316;-70
2022/03/20 10:06:37;;;;;;;26.45;17.17;;;;;;;;;;5024316;28;20454;-70
2022/03/20 10:09:09;;;;;;;24.17;15.85;;;;;;;;;;5031873;28;20049;-70
2022/03/20 10:11:37;;;;;;;31.55;17.60;;;;;;;;;;5018752;28;20045;-71
2022/03/20 10:14:17;;;;;;;25.65;16.58;;;;;;;;;;5031184;28;20464;-70
2022/03/20 10:16:48;;;;;;;25.75;16.50;;;;;;;;;;5022997;28;20045;-70
2022/03/20 10:19:23;;;;;;;27.05;17.23;;;;;;;;;;5026247;28;20216;-69
2022/03/20 10:21:54;;;;;;;26.85;16.90;;;;;;;;;;5040795;28;20049;-70
2022/03/20 10:24:22;;;;;;;26.67;16.75;;;;;;;;;;5028706;28;20041;-70
2022/03/20 10:26:53;;;;;;;30.95;17.77;;;;;;;;;;5031023;28;20049;-70
2022/03/20 10:29:19;;;;;;;25.85;16.83;;;;;;;;;;5031236;28;20049;-70
2022/03/20 10:31:50;;;;;;;26.08;17.00;;;;;;;;;;5032025;28;20063;-69
2022/03/20 10:34:17;;;;;;;27.17;16.70;;;;;;;;;;5029665;28;20053;-68
2022/03/20 10:36:44;;;;;;;26.98;16.33;;;;;;;;;;5013321;28;20045;-69
2022/03/20 10:39:11;;;;;;;26.88;17.65;;;;;;;;;;5027748;28;20041;-68
2022/03/20 10:41:39;;;;;;;26.10;17.33;;;;;;;;;;5001529;28;20055;-69
2022/03/20 10:44:26;;;;;;;26.33;16.75;;;;;;;;;;5025939;28;20049;-69
2022/03/20 10:47:13;;;;;;;28.05;17.35;;;;;;;;;;5015356;28;20052;-69
2022/03/20 10:49:41;;;;;;;26.88;17.05;;;;;;;;;;5026849;28;20803;-69
2022/03/20 10:52:21;;;;;;;28.90;18.55;;;;;;;;;;5029311;28;20278;-69
2022/03/20 10:54:51;;;;;;;30.38;18.00;;;;;;;;;;5036297;28;20494;-70
2022/03/20 10:57:18;;;;;;;25.65;17.08;;;;;;;;;;5028910;28;20526;-70
2022/03/20 10:59:56;;;;;;;30.17;19.35;;;;;;;;;;5026119;28;20048;-71
2022/03/20 11:02:23;;;;;;;27.65;17.05;;;;;;;;;;5040744;28;20064;-70
2022/03/20 11:04:51;;;;;;;25.65;17.48;;;;;;;;;;5046556;28;20579;-68
2022/03/20 11:07:17;;;;;;;26.52;17.23;;;;;;;;;;5036754;28;20056;-68
2022/03/20 11:09:47;;;;;;;30.75;17.52;;;;;;;;;;5034140;28;20049;-69
2022/03/20 11:12:36;;;;;;;31.33;19.33;;;;;;;;;;5035666;28;20053;-69
2022/03/20 11:15:06;;;;;;;30.77;17.27;;;;;;;;;;5018912;28;20052;-71
2022/03/20 11:17:46;;;;;;;28.40;18.38;;;;;;;;;;5037746;28;20152;-69
2022/03/20 11:20:13;;;;;;;29.42;18.48;;;;;;;;;;5056763;28;20476;-70
2022/03/20 11:22:42;;;;;;;26.63;17.80;;;;;;;;;;5030037;28;20440;-69
2022/03/20 11:25:10;;;;;;;27.17;18.90;;;;;;;;;;5040727;28;20067;-69
2022/03/20 11:27:40;;;;;;;29.08;19.00;;;;;;;;;;5029815;28;20053;-69
2022/03/20 11:30:07;;;;;;;32.25;18.60;;;;;;;;;;5039419;28;20045;-70
2022/03/20 11:32:34;;;;;;;27.10;18.25;;;;;;;;;;5034754;28;20456;-69
2022/03/20 11:35:03;;;;;;;29.92;18.50;;;;;;;;;;5048119;28;20057;-69
2022/03/20 11:37:42;;;;;;;31.20;18.80;;;;;;;;;;5042471;28;20075;-69
2022/03/20 11:40:19;;;;;;;27.88;17.73;;;;;;;;;;5021556;28;20067;-69
2022/03/20 11:42:45;;;;;;;29.02;18.42;;;;;;;;;;5035178;28;20139;-69
2022/03/20 11:45:14;;;;;;;33.75;20.67;;;;;;;;;;5027469;28;20525;-69
2022/03/20 11:47:41;;;;;;;31.55;19.92;;;;;;;;;;5041989;28;20057;-69
2022/03/20 11:50:13;;;;;;;30.15;20.08;;;;;;;;;;5040537;28;20063;-69
2022/03/20 11:52:44;;;;;;;28.95;18.60;;;;;;;;;;5044901;28;20049;-69
2022/03/20 11:55:26;;;;;;;31.48;19.30;;;;;;;;;;5038461;28;20094;-70
2022/03/20 11:57:52;;;;;;;30.20;18.33;;;;;;;;;;5028846;28;20052;-70
2022/03/20 12:00:22;;;;;;;29.80;19.63;;;;;;;;;;5024413;28;20592;-69
2022/03/20 12:03:10;;;;;;;27.58;18.17;;;;;;;;;;5026548;28;20122;-69
2022/03/20 12:05:56;;;;;;;28.25;18.20;;;;;;;;;;5031460;28;20290;-70
2022/03/20 12:08:41;;;;;;;29.40;19.55;;;;;;;;;;5030135;28;20049;-70
2022/03/20 12:11:26;;;;;;;28.70;17.65;;;;;;;;;;5030733;28;20053;-70
2022/03/20 12:14:05;;;;;;;30.00;19.30;;;;;;;;;;5033020;28;20053;-70
2022/03/20 12:16:43;;;;;;;32.13;19.08;;;;;;;;;;5038690;28;20048;-70
2022/03/20 12:19:11;;;;;;;27.77;18.23;;;;;;;;;;5045033;28;20080;-70
2022/03/20 12:21:53;;;;;;;32.77;19.70;;;;;;;;;;5037992;28;20602;-70
2022/03/20 12:24:45;;;;;;;33.45;19.73;;;;;;;;;;5033056;28;20052;-70
2022/03/20 12:27:23;;;;;;;30.67;19.65;;;;;;;;;;5025436;28;20049;-70
2022/03/20 12:30:03;;;;;;;27.30;18.63;;;;;;;;;;5047300;28;20119;-70
2022/03/20 12:32:48;;;;;;;28.77;18.73;;;;;;;;;;5031037;28;20048;-70
2022/03/20 12:35:14;;;;;;;30.55;18.58;;;;;;;;;;5035507;28;20487;-70
2022/03/20 12:37:42;;;;;;;29.55;19.33;;;;;;;;;;5031808;28;20072;-70
2022/03/20 12:40:10;;;;;;;30.50;18.25;;;;;;;;;;5041414;28;20048;-70
2022/03/20 12:43:02;;;;;;;27.13;19.20;;;;;;;;;;5036501;28;20060;-70
2022/03/20 12:45:29;;;;;;;28.45;19.13;;;;;;;;;;5037332;28;20295;-70
2022/03/20 12:47:56;;;;;;;30.88;19.33;;;;;;;;;;5035187;28;20131;-70
2022/03/20 12:50:25;;;;;;;31.17;20.30;;;;;;;;;;5041518;28;20061;-70
2022/03/20 12:52:53;;;;;;;32.13;18.52;;;;;;;;;;5037016;28;20281;-70
2022/03/20 12:55:24;;;;;;;29.65;16.92;;;;;;;;;;5028379;28;20053;-70
2022/03/20 12:57:50;;;;;;;29.90;18.40;;;;;;;;;;5046230;28;20041;-70
2022/03/20 13:00:21;;;;;;;33.05;19.30;;;;;;;;;;5027795;28;20053;-70
2022/03/20 13:02:54;;;;;;;30.52;20.05;;;;;;;;;;5043067;28;20045;-70
2022/03/20 13:05:21;;;;;;;30.25;18.98;;;;;;;;;;5023446;28;20490;-70
2022/03/20 13:07:47;;;;;;;33.92;20.48;;;;;;;;;;5013939;28;20482;-70
2022/03/20 13:10:16;;;;;;;28.98;18.00;;;;;;;;;;5048817;28;20051;-70
2022/03/20 13:13:03;;;;;;;30.75;19.10;;;;;;;;;;5039874;28;20053;-70
2022/03/20 13:15:30;;;;;;;29.67;18.55;;;;;;;;;;5046044;28;20071;-70
2022/03/20 13:17:57;;;;;;;35.25;19.23;;;;;;;;;;5028361;28;20103;-70
2022/03/20 13:20:25;;;;;;;28.02;18.80;;;;;;;;;;5041521;28;20056;-70
2022/03/20 13:22:52;;;;;;;31.85;20.10;;;;;;;;;;5033377;28;20048;-70
2022/03/20 13:25:20;;;;;;;31.90;19.58;;;;;;;;;;5031902;28;20053;-70
2022/03/20 13:27:48;;;;;;;38.90;20.20;;;;;;;;;;5046080;28;20057;-71
2022/03/20 13:30:18;;;;;;;29.60;19.48;;;;;;;;;;5048950;28;20041;-70
2022/03/20 13:32:45;;;;;;;30.13;19.75;;;;;;;;;;5046750;28;20056;-71
2022/03/20 13:35:18;;;;;;;29.55;21.05;;;;;;;;;;5019099;28;20044;-70
2022/03/20 13:37:46;;;;;;;32.25;21.73;;;;;;;;;;5045417;28;20321;-70
2022/03/20 13:40:12;;;;;;;34.33;22.75;;;;;;;;;;5028666;28;20049;-71
2022/03/20 13:42:40;;;;;;;33.70;23.13;;;;;;;;;;5040180;28;20049;-71
2022/03/20 13:45:07;;;;;;;34.90;22.05;;;;;;;;;;5042081;28;20610;-70
2022/03/20 13:47:35;;;;;;;29.63;21.10;;;;;;;;;;5015599;28;20053;-71
2022/03/20 13:50:02;;;;;;;37.97;24.20;;;;;;;;;;5046010;28;20414;-71
2022/03/20 13:52:33;;;;;;;33.85;22.38;;;;;;;;;;5038546;28;20051;-71
2022/03/20 13:55:01;;;;;;;34.35;22.70;;;;;;;;;;5036627;28;20060;-68
2022/03/20 13:57:30;;;;;;;33.65;21.35;;;;;;;;;;5033172;28;20048;-70
2022/03/20 13:59:59;;;;;;;35.67;24.33;;;;;;;;;;5033745;28;20119;-70
2022/03/20 14:02:25;;;;;;;35.97;24.15;;;;;;;;;;5038794;28;20425;-70
2022/03/20 14:04:57;;;;;;;36.00;24.23;;;;;;;;;;5034538;28;20048;-70
2022/03/20 14:07:23;;;;;;;37.08;22.52;;;;;;;;;;5038351;28;20048;-70
2022/03/20 14:09:51;;;;;;;35.05;23.83;;;;;;;;;;5026299;28;20061;-70
2022/03/20 14:12:20;;;;;;;34.00;22.00;;;;;;;;;;5038976;28;20065;-71
2022/03/20 14:14:47;;;;;;;35.80;22.33;;;;;;;;;;5012594;28;20529;-70
2022/03/20 14:17:13;;;;;;;35.42;24.02;;;;;;;;;;5043259;28;20049;-70
2022/03/20 14:19:43;;;;;;;37.45;24.45;;;;;;;;;;5040766;28;20391;-70
2022/03/20 14:22:09;;;;;;;39.42;25.15;;;;;;;;;;5032202;28;20044;-70
2022/03/20 14:24:50;;;;;;;36.88;24.55;;;;;;;;;;5037835;28;20049;-70
2022/03/20 14:27:24;;;;;;;36.45;23.80;;;;;;;;;;5019231;28;20076;-69
2022/03/20 14:40:57;;;;;;;38.50;26.05;;;;;;;;;;5030577;28;20052;-68
2022/03/20 14:43:28;;;;;;;42.42;26.77;;;;;;;;;;5023312;28;20522;-68
2022/03/20 14:45:55;;;;;;;41.25;26.40;;;;;;;;;;5031831;28;20054;-69
2022/03/20 14:48:28;;;;;;;41.17;26.48;;;;;;;;;;5029763;28;20050;-69
2022/03/20 14:50:55;;;;;;;37.78;25.55;;;;;;;;;;5032509;28;20562;-69
2022/03/20 14:53:23;;;;;;;40.38;26.88;;;;;;;;;;5037313;28;20514;-69
2022/03/20 14:55:50;;;;;;;40.83;27.15;;;;;;;;;;5014862;28;20056;-69
2022/03/20 14:58:18;;;;;;;41.72;27.80;;;;;;;;;;5022499;28;20056;-69
2022/03/20 15:00:44;;;;;;;38.75;25.52;;;;;;;;;;4998866;28;20434;-69
2022/03/20 15:03:11;;;;;;;40.30;25.10;;;;;;;;;;5024195;28;20045;-69
2022/03/20 15:05:38;;;;;;;38.78;26.60;;;;;;;;;;5037535;28;20063;-68
2022/03/20 15:13:34;;;;;;;34.33;22.70;;;;;;;;;;5017158;28;20068;-69
2022/03/20 15:16:00;;;;;;;37.03;24.95;;;;;;;;;;5023855;28;20418;-69